Time;durP1;ratioP1;P1;durP2;ratioP2;P2;SDS_P1;SDS_P2;PMS_P1;PMS_P2;Temp;Humidity;BMP_temperature;BMP_pressure;BME280_temperature;BME280_humidity;BME280_pressure;Samples;Min_cycle;Max_cycle;Signal;HPM_P1;HPM_P2
2023/04/21 00:00:22;;;;;;;;;;;;;;;5.96;81.45;102184.19;5087897;28;19952;-70
2023/04/21 00:02:48;;;;;;;;;;;;;;;5.89;81.92;102179.81;5082348;28;20350;-72
2023/04/21 00:05:14;;;;;;;;;;;;;;;5.94;81.49;102166.78;5093527;28;19933;-72
2023/04/21 00:07:40;;;;;;;;;;;;;;;6.08;81.02;102173.72;5102100;28;20370;-72
2023/04/21 00:10:06;;;;;;;;;;;;;;;5.99;81.51;102166.97;5098955;28;19942;-72
2023/04/21 00:12:32;;;;;;;;;;;;;;;5.84;81.75;102163.69;5100761;28;20110;-71
2023/04/21 00:15:01;;;;;;;;;;;;;;;5.86;81.75;102177.56;5050994;28;20449;-73
2023/04/21 00:17:27;;;;;;;;;;;;;;;5.78;82.49;102167.16;5067639;28;20022;-71
2023/04/21 00:19:53;;;;;;;;;;;;;;;5.93;81.75;102167.78;5051694;28;19977;-70
2023/04/21 00:22:20;;;;;;;;;;;;;;;5.88;81.72;102159.56;5102809;28;19985;-71
2023/04/21 00:24:46;;;;;;;;;;;;;;;6.07;80.76;102158.78;5068572;28;19936;-70
2023/04/21 00:27:12;;;;;;;;;;;;;;;5.96;81.00;102162.06;5083496;28;20018;-72
2023/04/21 00:29:39;;;;;;;;;;;;;;;5.87;81.46;102165.91;5057294;28;19942;-72
2023/04/21 00:32:07;;;;;;;;;;;;;;;5.78;81.70;102165.31;5084560;28;19934;-71
2023/04/21 00:34:33;;;;;;;;;;;;;;;5.79;82.07;102166.94;5066206;28;20057;-72
2023/04/21 00:36:58;;;;;;;;;;;;;;;5.69;82.13;102162.03;5085167;28;20025;-73
2023/04/21 00:39:24;;;;;;;;;;;;;;;5.84;81.71;102153.03;5089571;28;19939;-72
2023/04/21 00:41:50;;;;;;;;;;;;;;;5.97;81.20;102147.75;5071468;28;19942;-71
2023/04/21 00:44:16;;;;;;;;;;;;;;;5.78;81.68;102154.66;5076702;28;19933;-70
2023/04/21 00:46:42;;;;;;;;;;;;;;;5.75;82.02;102160.38;5087580;28;19950;-71
2023/04/21 00:49:08;;;;;;;;;;;;;;;5.84;81.59;102153.03;5070907;28;20042;-73
2023/04/21 00:51:34;;;;;;;;;;;;;;;5.98;80.73;102141.41;5069508;28;19935;-72
2023/04/21 00:54:02;;;;;;;;;;;;;;;5.87;81.39;102157.94;5073648;28;19962;-71
2023/04/21 00:56:29;;;;;;;;;;;;;;;5.85;81.39;102155.50;5097479;28;19995;-71
2023/04/21 00:58:57;;;;;;;;;;;;;;;5.88;81.37;102136.47;5080884;28;19933;-72
2023/04/21 01:01:23;;;;;;;;;;;;;;;5.84;81.30;102139.75;5067227;28;19934;-71
2023/04/21 01:03:50;;;;;;;;;;;;;;;5.86;81.08;102140.34;5078268;28;20377;-71
2023/04/21 01:06:16;;;;;;;;;;;;;;;5.81;81.91;102158.75;5074987;28;20358;-72
2023/04/21 01:08:44;;;;;;;;;;;;;;;5.73;81.91;102139.31;5065136;28;19944;-72
2023/04/21 01:11:11;;;;;;;;;;;;;;;5.64;82.41;102148.50;5096960;28;19933;-71
2023/04/21 01:13:39;;;;;;;;;;;;;;;5.78;81.79;102149.34;5066759;28;19959;-71
2023/04/21 01:16:05;;;;;;;;;;;;;;;5.87;80.83;102145.47;5070914;28;19946;-72
2023/04/21 01:18:31;;;;;;;;;;;;;;;5.80;81.66;102149.97;5076412;28;19941;-71
2023/04/21 01:21:00;;;;;;;;;;;;;;;5.83;81.51;102148.75;5064950;28;20519;-71
2023/04/21 01:23:26;;;;;;;;;;;;;;;5.62;82.43;102149.72;5050208;28;20857;-73
2023/04/21 01:25:52;;;;;;;;;;;;;;;5.73;81.84;102144.63;5084232;28;19953;-72
2023/04/21 01:28:22;;;;;;;;;;;;;;;5.66;82.04;102146.47;5066821;28;20426;-71
2023/04/21 01:30:48;;;;;;;;;;;;;;;5.65;82.21;102142.19;5069229;28;19935;-72
2023/04/21 01:33:13;;;;;;;;;;;;;;;5.69;81.67;102146.06;5047191;28;19990;-71
2023/04/21 01:35:39;;;;;;;;;;;;;;;5.48;82.68;102144.38;5070995;28;19977;-71
2023/04/21 01:38:05;;;;;;;;;;;;;;;5.48;82.28;102154.19;5074950;28;19994;-71
2023/04/21 01:40:30;;;;;;;;;;;;;;;5.48;82.81;102148.88;5070443;28;19941;-72
2023/04/21 01:42:56;;;;;;;;;;;;;;;5.28;83.28;102129.41;5069964;28;19979;-72
2023/04/21 01:45:21;;;;;;;;;;;;;;;5.32;83.64;102141.28;5073305;28;19954;-71
2023/04/21 01:47:47;;;;;;;;;;;;;;;5.28;83.61;102142.69;5072268;28;19954;-73
2023/04/21 01:50:13;;;;;;;;;;;;;;;5.38;82.82;102132.53;5072918;28;19943;-70
2023/04/21 01:52:41;;;;;;;;;;;;;;;5.36;83.01;102139.88;5057991;28;19935;-72
2023/04/21 01:55:07;;;;;;;;;;;;;;;5.32;83.16;102134.13;5073283;28;19958;-72
2023/04/21 01:57:33;;;;;;;;;;;;;;;5.26;83.84;102128.81;5108870;27;19958;-72
2023/04/21 01:59:59;;;;;;;;;;;;;;;5.14;83.83;102136.53;5090289;28;19993;-72
2023/04/21 02:02:26;;;;;;;;;;;;;;;5.16;84.08;102130.00;5090296;28;19934;-71
2023/04/21 02:04:52;;;;;;;;;;;;;;;5.11;84.02;102121.00;5071696;28;19942;-74
2023/04/21 02:07:19;;;;;;;;;;;;;;;5.07;84.40;102127.72;5083011;28;20004;-72
2023/04/21 02:09:45;;;;;;;;;;;;;;;5.17;84.18;102126.34;5080848;28;19976;-72
2023/04/21 02:12:10;;;;;;;;;;;;;;;5.31;83.64;102111.25;5070126;28;20342;-73
2023/04/21 02:14:40;;;;;;;;;;;;;;;5.29;83.33;102120.44;5051099;28;19952;-73
2023/04/21 02:17:06;;;;;;;;;;;;;;;5.12;84.43;102118.16;5081275;28;19946;-72
2023/04/21 02:19:32;;;;;;;;;;;;;;;5.06;84.35;102120.78;5052263;28;19939;-71
2023/04/21 02:21:58;;;;;;;;;;;;;;;5.26;83.66;102119.00;5075500;28;20333;-72
2023/04/21 02:24:23;;;;;;;;;;;;;;;5.18;83.83;102120.00;5075264;28;20025;-71
2023/04/21 02:26:51;;;;;;;;;;;;;;;5.04;84.54;102118.31;5068275;28;19997;-75
2023/04/21 02:29:17;;;;;;;;;;;;;;;5.09;84.07;102110.59;5086934;28;19932;-71
2023/04/21 02:31:42;;;;;;;;;;;;;;;5.22;83.57;102117.78;5071846;28;19980;-71
2023/04/21 02:34:07;;;;;;;;;;;;;;;5.18;83.68;102127.97;5105065;28;19969;-72
2023/04/21 02:36:33;;;;;;;;;;;;;;;5.29;83.70;102118.63;5075390;28;20008;-72
2023/04/21 02:38:58;;;;;;;;;;;;;;;5.26;83.70;102123.50;5086654;28;19940;-73
2023/04/21 02:41:24;;;;;;;;;;;;;;;5.14;83.90;102126.72;5087375;28;19938;-71
2023/04/21 02:43:50;;;;;;;;;;;;;;;5.22;84.07;102119.63;5081478;28;19942;-71
2023/04/21 02:46:15;;;;;;;;;;;;;;;5.29;83.29;102128.44;5072377;28;19951;-72
2023/04/21 02:48:41;;;;;;;;;;;;;;;5.31;83.04;102121.06;5087116;28;19968;-71
2023/04/21 02:51:14;;;;;;;;;;;;;;;5.23;83.72;102126.56;5070284;28;19975;-70
2023/04/21 02:53:40;;;;;;;;;;;;;;;5.35;83.31;102124.94;5084820;28;20433;-70
2023/04/21 02:56:07;;;;;;;;;;;;;;;5.20;83.78;102114.47;5077322;28;20038;-72
2023/04/21 02:58:34;;;;;;;;;;;;;;;5.25;83.21;102121.84;5087888;28;19934;-72
2023/04/21 03:01:00;;;;;;;;;;;;;;;5.51;82.57;102126.41;5073510;28;19941;-71
2023/04/21 03:03:27;;;;;;;;;;;;;;;5.35;83.00;102122.28;5072234;28;19934;-71
2023/04/21 03:05:59;;;;;;;;;;;;;;;5.30;82.95;102124.75;5071332;28;19999;-71
2023/04/21 03:08:25;;;;;;;;;;;;;;;5.31;83.21;102119.22;5094067;28;19938;-70
2023/04/21 03:10:51;;;;;;;;;;;;;;;5.29;82.78;102123.09;5078686;28;19932;-69
2023/04/21 03:13:17;;;;;;;;;;;;;;;5.23;83.23;102115.94;5069480;28;20025;-73
2023/04/21 03:15:43;;;;;;;;;;;;;;;5.61;81.62;102117.00;5074669;28;20118;-71
2023/04/21 03:18:09;;;;;;;;;;;;;;;5.74;80.83;102110.91;5092809;28;19955;-72
2023/04/21 03:20:35;;;;;;;;;;;;;;;5.59;81.52;102126.22;5088738;28;19942;-70
2023/04/21 03:23:05;;;;;;;;;;;;;;;5.60;81.25;102114.56;5070567;28;19976;-69
2023/04/21 03:25:31;;;;;;;;;;;;;;;5.67;80.77;102118.84;5093155;28;20627;-71
2023/04/21 03:27:57;;;;;;;;;;;;;;;5.49;81.71;102108.03;5054465;28;19948;-72
2023/04/21 03:30:25;;;;;;;;;;;;;;;5.57;81.09;102121.13;5056840;28;20246;-72
2023/04/21 03:32:50;;;;;;;;;;;;;;;5.52;81.72;102110.25;5053571;28;19978;-72
2023/04/21 03:35:16;;;;;;;;;;;;;;;5.51;81.65;102105.16;5105634;28;20338;-71
2023/04/21 03:37:41;;;;;;;;;;;;;;;5.35;82.27;102106.34;5041782;28;19952;-70
2023/04/21 03:40:07;;;;;;;;;;;;;;;5.48;81.70;102101.88;5090375;28;19934;-70
2023/04/21 03:42:33;;;;;;;;;;;;;;;5.56;81.45;102100.88;5081671;28;19934;-71
2023/04/21 03:45:05;;;;;;;;;;;;;;;5.48;81.23;102114.34;5070726;28;20021;-71
2023/04/21 03:47:33;;;;;;;;;;;;;;;5.46;81.35;102111.06;5086677;28;20000;-71
2023/04/21 03:49:58;;;;;;;;;;;;;;;5.63;80.65;102101.69;5080479;28;20027;-70
2023/04/21 03:52:24;;;;;;;;;;;;;;;5.56;80.82;102111.50;5071728;28;19945;-70
2023/04/21 03:54:50;;;;;;;;;;;;;;;5.54;81.19;102105.56;5091161;28;20419;-70
2023/04/21 03:57:15;;;;;;;;;;;;;;;5.40;81.69;102109.22;5078828;28;19956;-74
2023/04/21 03:59:42;;;;;;;;;;;;;;;5.53;81.25;102108.44;5091837;28;19930;-72
2023/04/21 04:02:10;;;;;;;;;;;;;;;5.40;81.27;102106.56;5072205;28;19934;-71
2023/04/21 04:04:35;;;;;;;;;;;;;;;5.55;80.97;102109.03;5082577;28;19942;-71
2023/04/21 04:07:01;;;;;;;;;;;;;;;5.44;81.21;102102.50;5072254;28;19948;-71
2023/04/21 04:09:29;;;;;;;;;;;;;;;5.38;81.67;102100.66;5071554;28;20015;-72
2023/04/21 04:11:55;;;;;;;;;;;;;;;5.52;81.38;102102.28;5083575;27;20394;-71
2023/04/21 04:14:21;;;;;;;;;;;;;;;5.54;80.73;102100.25;5101945;28;19962;-70
2023/04/21 04:16:46;;;;;;;;;;;;;;;5.51;81.20;102110.47;5086217;28;20326;-71
2023/04/21 04:19:12;;;;;;;;;;;;;;;5.39;81.49;102102.28;5099567;28;20030;-70
2023/04/21 04:21:38;;;;;;;;;;;;;;;5.49;81.07;102110.69;5070405;28;20054;-72
2023/04/21 04:24:04;;;;;;;;;;;;;;;5.47;80.93;102100.22;5105250;28;19939;-73
2023/04/21 04:26:32;;;;;;;;;;;;;;;5.55;80.73;102109.03;5085286;28;19960;-73
2023/04/21 04:28:59;;;;;;;;;;;;;;;5.49;81.07;102108.03;5069696;28;19939;-71
2023/04/21 04:31:24;;;;;;;;;;;;;;;5.50;81.09;102104.34;5081611;28;19943;-71
2023/04/21 04:33:53;;;;;;;;;;;;;;;5.43;81.10;102103.53;5050819;28;19958;-71
2023/04/21 04:36:19;;;;;;;;;;;;;;;5.41;81.57;102110.84;5102375;28;19953;-72
2023/04/21 04:38:44;;;;;;;;;;;;;;;5.56;80.71;102106.19;5053893;28;19930;-72
2023/04/21 04:41:11;;;;;;;;;;;;;;;5.60;80.91;102106.59;5070299;28;19972;-72
2023/04/21 04:43:37;;;;;;;;;;;;;;;5.66;80.34;102103.13;5067728;28;19933;-71
2023/04/21 04:46:04;;;;;;;;;;;;;;;5.83;79.73;102100.91;5102728;28;20451;-71
2023/04/21 04:48:30;;;;;;;;;;;;;;;5.87;79.61;102099.44;5071518;28;20051;-73
2023/04/21 04:50:55;;;;;;;;;;;;;;;6.03;78.61;102096.41;5052608;28;20383;-72
2023/04/21 04:53:21;;;;;;;;;;;;;;;5.90;79.48;102099.88;5100072;28;20401;-70
2023/04/21 04:55:47;;;;;;;;;;;;;;;6.00;78.69;102094.16;5084613;28;19956;-71
2023/04/21 04:58:12;;;;;;;;;;;;;;;5.96;79.22;102092.91;5086131;28;19949;-72
2023/04/21 05:00:38;;;;;;;;;;;;;;;6.08;78.58;102099.25;5082943;28;20736;-72
2023/04/21 05:03:04;;;;;;;;;;;;;;;6.00;78.92;102104.78;5078813;28;19932;-73
2023/04/21 05:05:29;;;;;;;;;;;;;;;6.02;78.90;102105.41;5084423;28;19991;-71
2023/04/21 05:07:55;;;;;;;;;;;;;;;6.01;79.20;102104.56;5098881;28;19952;-72
2023/04/21 05:10:20;;;;;;;;;;;;;;;6.18;78.00;102102.31;5073821;28;19932;-71
2023/04/21 05:12:46;;;;;;;;;;;;;;;6.26;77.99;102101.28;5098863;28;19935;-72
2023/04/21 05:15:12;;;;;;;;;;;;;;;6.49;76.53;102104.28;5106016;28;20525;-72
2023/04/21 05:17:37;;;;;;;;;;;;;;;6.49;77.11;102103.47;5107171;28;19952;-72
2023/04/21 05:20:04;;;;;;;;;;;;;;;6.48;77.35;102096.53;5073850;28;20635;-71
2023/04/21 05:22:30;;;;;;;;;;;;;;;6.49;77.21;102104.28;5072398;28;19952;-71
2023/04/21 05:24:55;;;;;;;;;;;;;;;6.54;76.68;102111.66;5092349;28;19930;-69
2023/04/21 05:27:21;;;;;;;;;;;;;;;6.68;76.30;102113.25;5073739;28;19951;-71
2023/04/21 05:29:46;;;;;;;;;;;;;;;6.77;75.90;102109.34;5075863;28;20036;-73
2023/04/21 05:32:12;;;;;;;;;;;;;;;6.72;76.64;102108.34;5100887;28;19937;-71
2023/04/21 05:34:37;;;;;;;;;;;;;;;6.81;76.39;102110.53;5083883;28;19954;-73
2023/04/21 05:37:03;;;;;;;;;;;;;;;6.84;75.94;102099.47;5088202;28;20452;-71
2023/04/21 05:39:29;;;;;;;;;;;;;;;7.09;75.25;102110.19;5105200;28;19984;-74
2023/04/21 05:41:55;;;;;;;;;;;;;;;7.14;75.17;102112.25;5069904;28;19932;-72
2023/04/21 05:44:20;;;;;;;;;;;;;;;7.21;75.33;102102.34;5089377;28;19939;-70
2023/04/21 05:46:45;;;;;;;;;;;;;;;7.27;74.17;102101.50;5083937;28;20014;-70
2023/04/21 05:49:11;;;;;;;;;;;;;;;7.46;73.75;102102.41;5085156;28;19938;-73
2023/04/21 05:51:36;;;;;;;;;;;;;;;7.42;74.19;102101.22;5083481;28;19936;-71
2023/04/21 05:54:02;;;;;;;;;;;;;;;7.50;74.00;102108.94;5072488;28;19957;-72
2023/04/21 05:56:28;;;;;;;;;;;;;;;7.59;73.96;102112.19;5102010;28;19946;-72
2023/04/21 05:58:56;;;;;;;;;;;;;;;7.72;73.43;102112.06;5072033;28;19973;-72
2023/04/21 06:01:21;;;;;;;;;;;;;;;7.84;72.80;102113.00;5083330;28;19932;-72
2023/04/21 06:03:48;;;;;;;;;;;;;;;7.96;72.53;102114.97;5082630;28;19935;-71
2023/04/21 06:06:14;;;;;;;;;;;;;;;8.02;72.01;102114.09;5073479;28;19954;-72
2023/04/21 06:08:40;;;;;;;;;;;;;;;8.09;72.89;102112.16;5086959;28;19933;-72
2023/04/21 06:11:06;;;;;;;;;;;;;;;8.23;71.50;102105.66;5104199;28;19942;-72
2023/04/21 06:13:31;;;;;;;;;;;;;;;8.44;70.07;102099.13;5088302;28;19990;-72
2023/04/21 06:15:57;;;;;;;;;;;;;;;8.44;70.09;102102.59;5075294;28;19930;-71
2023/04/21 06:18:25;;;;;;;;;;;;;;;8.59;69.58;102098.75;5046768;28;20406;-70
2023/04/21 06:20:51;;;;;;;;;;;;;;;8.77;69.76;102097.94;5086358;28;20023;-71
2023/04/21 06:23:17;;;;;;;;;;;;;;;8.86;69.42;102091.22;5090716;28;19936;-72
2023/04/21 06:25:43;;;;;;;;;;;;;;;8.82;69.65;102096.22;5086917;28;19996;-70
2023/04/21 06:28:08;;;;;;;;;;;;;;;8.85;69.76;102093.09;5073060;28;20439;-70
2023/04/21 06:30:34;;;;;;;;;;;;;;;8.99;68.78;102089.19;5105978;27;19981;-70
2023/04/21 06:33:00;;;;;;;;;;;;;;;9.01;68.62;102091.66;5101856;28;19939;-69
2023/04/21 06:35:25;;;;;;;;;;;;;;;9.13;68.89;102084.50;5104132;28;19956;-72
2023/04/21 06:37:51;;;;;;;;;;;;;;;9.27;68.16;102088.59;5088230;28;19951;-71
2023/04/21 06:40:16;;;;;;;;;;;;;;;9.52;67.08;102082.28;5103087;28;20033;-70
2023/04/21 06:42:42;;;;;;;;;;;;;;;9.39;67.31;102088.63;5084944;28;20443;-70
2023/04/21 06:45:08;;;;;;;;;;;;;;;9.60;66.48;102084.63;5086395;28;19961;-71
2023/04/21 06:47:34;;;;;;;;;;;;;;;9.53;66.56;102084.72;5104621;28;20321;-73
2023/04/21 06:50:02;;;;;;;;;;;;;;;9.63;67.08;102072.66;5075941;28;19944;-73
2023/04/21 06:52:27;;;;;;;;;;;;;;;9.77;66.85;102087.44;5085271;28;20398;-71
2023/04/21 06:54:53;;;;;;;;;;;;;;;9.83;65.84;102084.66;5070170;28;20067;-71
2023/04/21 06:57:18;;;;;;;;;;;;;;;10.12;65.69;102082.91;5090215;28;19982;-72
2023/04/21 06:59:44;;;;;;;;;;;;;;;10.18;65.29;102083.03;5100240;28;20312;-70
2023/04/21 07:02:09;;;;;;;;;;;;;;;10.43;65.38;102069.38;5087181;28;19930;-71
2023/04/21 07:04:35;;;;;;;;;;;;;;;10.47;64.27;102074.03;5071370;28;19948;-71
2023/04/21 07:07:00;;;;;;;;;;;;;;;10.49;64.33;102074.63;5060527;27;20079;-73
2023/04/21 07:09:27;;;;;;;;;;;;;;;10.58;63.33;102065.19;5081590;28;20010;-73
2023/04/21 07:11:56;;;;;;;;;;;;;;;10.65;63.92;102068.53;5088148;28;19938;-70
2023/04/21 07:14:24;;;;;;;;;;;;;;;10.71;63.65;102069.47;5080250;28;19959;-72
2023/04/21 07:16:50;;;;;;;;;;;;;;;10.92;63.37;102070.66;5098950;28;20037;-71
2023/04/21 07:19:15;;;;;;;;;;;;;;;10.95;62.43;102070.16;5086286;28;20030;-72
2023/04/21 07:21:41;;;;;;;;;;;;;;;11.26;62.90;102071.53;5103292;28;19941;-72
2023/04/21 07:24:07;;;;;;;;;;;;;;;11.15;62.76;102065.19;5065949;28;19936;-73
2023/04/21 07:26:33;;;;;;;;;;;;;;;11.47;61.67;102056.59;5081466;28;19950;-72
2023/04/21 07:28:58;;;;;;;;;;;;;;;11.57;60.31;102056.75;5072093;28;19950;-72
2023/04/21 07:31:24;;;;;;;;;;;;;;;11.45;61.17;102059.53;5069816;28;19936;-71
2023/04/21 07:33:50;;;;;;;;;;;;;;;11.49;61.19;102060.66;5051858;28;20013;-71
2023/04/21 07:36:15;;;;;;;;;;;;;;;11.60;62.05;102052.78;5086452;28;20386;-70
2023/04/21 07:38:42;;;;;;;;;;;;;;;11.84;61.47;102059.63;5099571;28;20466;-71
2023/04/21 07:41:08;;;;;;;;;;;;;;;11.87;60.32;102061.03;5085101;28;20032;-72
2023/04/21 07:43:36;;;;;;;;;;;;;;;11.92;59.58;102067.28;5085242;28;20014;-71
2023/04/21 07:46:02;;;;;;;;;;;;;;;11.89;59.65;102058.91;5087759;28;19934;-70
2023/04/21 07:48:28;;;;;;;;;;;;;;;11.94;60.86;102050.94;5100383;28;20367;-71
2023/04/21 07:50:53;;;;;;;;;;;;;;;12.38;59.05;102042.91;5072288;28;19935;-72
2023/04/21 07:53:19;;;;;;;;;;;;;;;12.48;59.76;102045.72;5085856;28;19937;-70
2023/04/21 07:55:44;;;;;;;;;;;;;;;12.72;58.50;102041.69;5073155;28;20326;-71
2023/04/21 07:58:10;;;;;;;;;;;;;;;12.71;58.79;102045.44;5083284;28;19997;-71
2023/04/21 08:00:36;;;;;;;;;;;;;;;12.87;58.39;102035.69;5084501;28;19983;-71
2023/04/21 08:03:01;;;;;;;;;;;;;;;12.97;56.28;102038.47;5070968;28;19936;-74
2023/04/21 08:05:28;;;;;;;;;;;;;;;12.95;57.34;102037.13;5094578;28;19974;-71
2023/04/21 08:07:53;;;;;;;;;;;;;;;13.12;56.87;102029.72;5107251;27;19953;-70
2023/04/21 08:10:19;;;;;;;;;;;;;;;13.26;56.17;102041.72;5104362;28;19928;-70
2023/04/21 08:12:44;;;;;;;;;;;;;;;13.17;55.55;102032.47;5091347;28;20376;-72
2023/04/21 08:15:11;;;;;;;;;;;;;;;13.51;56.32;102037.63;5098772;28;20401;-72
2023/04/21 08:17:36;;;;;;;;;;;;;;;13.36;55.86;102035.63;5070260;28;19976;-70
2023/04/21 08:20:02;;;;;;;;;;;;;;;13.66;56.80;102026.97;5099721;28;19934;-70
2023/04/21 08:22:28;;;;;;;;;;;;;;;13.65;55.58;102041.50;5084223;28;20034;-72
2023/04/21 08:24:54;;;;;;;;;;;;;;;13.73;55.97;102027.56;5087254;28;20034;-71
2023/04/21 08:27:20;;;;;;;;;;;;;;;14.09;56.11;102025.06;5083591;28;19998;-72
2023/04/21 08:29:45;;;;;;;;;;;;;;;14.23;55.63;102023.53;5077872;28;20210;-73
2023/04/21 08:32:11;;;;;;;;;;;;;;;14.34;55.42;102025.19;5086634;28;20022;-72
2023/04/21 08:34:36;;;;;;;;;;;;;;;14.09;54.35;102016.97;5080061;28;19955;-70
2023/04/21 08:37:02;;;;;;;127.25;118.65;;;;;;;14.36;53.62;102023.06;5083278;28;20399;-71
2023/04/21 08:39:28;;;;;;;167.60;153.30;;;;;;;14.45;53.46;102015.28;5080457;28;20111;-73
2023/04/21 08:41:54;;;;;;;227.87;209.50;;;;;;;14.67;52.01;102017.78;5079667;28;20409;-71
2023/04/21 08:44:20;;;;;;;183.07;169.30;;;;;;;14.60;53.24;102017.22;5085188;28;20429;-74
2023/04/21 08:46:48;;;;;;;181.03;167.03;;;;;;;14.79;52.32;102014.84;5096087;28;20778;-71
2023/04/21 08:49:18;;;;;;;179.07;165.40;;;;;;;15.15;53.02;102007.59;5065087;28;20074;-71
2023/04/21 08:51:44;;;;;;;;;;;;;;;15.13;52.25;102015.97;5062555;28;20296;-70
2023/04/21 08:54:10;;;;;;;151.93;140.18;;;;;;;15.32;49.63;102012.75;5104607;28;20525;-73
2023/04/21 08:56:36;;;;;;;204.02;188.48;;;;;;;15.09;50.91;101997.88;5081277;28;20843;-72
2023/04/21 08:59:01;;;;;;;206.32;190.73;;;;;;;15.43;49.97;102009.75;5085799;28;20024;-71
2023/04/21 09:01:27;;;;;;;204.27;188.80;;;;;;;15.27;50.09;102003.56;5088136;28;20063;-72
2023/04/21 09:04:14;;;;;;;195.27;179.35;;;;;;;15.18;50.46;102004.38;5105512;28;20066;-73
2023/04/21 09:06:44;;;;;;;205.27;188.82;;;;;;;15.72;51.25;102006.53;5102452;28;20807;-73
2023/04/21 09:09:10;;;;;;;190.90;176.52;;;;;;;15.88;49.65;102005.41;5086003;28;20776;-72
2023/04/21 09:11:40;;;;;;;188.70;174.38;;;;;;;15.71;49.31;102010.28;5054733;28;20910;-71
2023/04/21 09:14:06;;;;;;;189.73;175.67;;;;;;;15.72;50.10;102006.53;5087064;28;20463;-72
2023/04/21 09:16:32;;;;;;;196.40;180.57;;;;;;;15.83;49.13;102002.69;5102017;28;20854;-72
2023/04/21 09:18:59;;;;;;;187.50;172.35;;;;;;;15.91;49.27;102002.13;5090445;28;20126;-72
2023/04/21 09:21:28;;;;;;;197.02;181.05;;;;;;;16.25;50.46;102010.41;5066563;28;20501;-71
2023/04/21 09:23:54;;;;;;;197.25;181.07;;;;;;;16.47;46.08;101995.72;5070736;28;20043;-73
2023/04/21 09:26:24;;;;;;;207.88;192.23;;;;;;;16.26;47.32;101995.81;5072374;28;20039;-72
2023/04/21 09:28:51;;;;;;;199.88;185.38;;;;;;;16.57;51.22;101993.75;5084572;28;20028;-73
2023/04/21 09:31:19;;;;;;;202.00;186.98;;;;;;;16.64;47.29;101996.94;5069589;28;20085;-72
2023/04/21 09:33:51;;;;;;;204.63;189.60;;;;;;;16.64;48.49;101991.53;5067350;28;20038;-70
2023/04/21 09:36:22;;;;;;;201.25;186.38;;;;;;;16.76;48.31;101983.13;5085474;28;20142;-73
2023/04/21 09:38:54;;;;;;;192.68;178.05;;;;;;;16.70;48.78;101980.72;5060903;28;20122;-71
2023/04/21 09:41:23;;;;;;;204.20;189.27;;;;;;;16.72;47.22;101987.47;5065261;28;20027;-72
2023/04/21 09:43:50;;;;;;;177.40;163.57;;;;;;;17.15;46.29;101985.81;5092640;28;20031;-71
2023/04/21 09:46:16;;;;;;;203.10;187.07;;;;;;;16.91;46.56;101974.88;5065576;28;20039;-70
2023/04/21 09:48:44;;;;;;;202.93;184.90;;;;;;;16.86;47.21;101976.81;5068136;28;20039;-71
2023/04/21 09:51:15;;;;;;;167.23;154.35;;;;;;;17.32;45.72;101979.16;5084842;28;20043;-69
2023/04/21 09:53:42;;;;;;;208.75;193.07;;;;;;;17.23;47.23;101972.75;5069126;28;20471;-71
2023/04/21 09:56:13;;;;;;;200.50;185.73;;;;;;;17.38;46.62;101972.59;5095038;28;20780;-72
2023/04/21 09:58:46;;;;;;;204.18;188.90;;;;;;;17.22;46.88;101963.03;5076864;28;20488;-71
2023/04/21 10:01:12;;;;;;;205.52;190.10;;;;;;;17.15;47.07;101953.31;5083676;28;20039;-73
2023/04/21 10:03:41;;;;;;;202.02;185.35;;;;;;;17.42;45.04;101965.53;5069574;28;20043;-71
2023/04/21 10:06:10;;;;;;;179.35;166.50;;;;;;;17.32;46.07;101958.31;5099270;28;20407;-71
2023/04/21 10:08:38;;;;;;;215.85;199.68;;;;;;;17.61;45.49;101961.00;5101237;27;21121;-72
2023/04/21 10:11:07;;;;;;;311.10;266.20;;;;;;;17.14;44.94;101945.50;5065705;28;20439;-74
2023/04/21 10:13:34;;;;;;;228.35;209.13;;;;;;;17.33;46.16;101943.66;5086771;28;20134;-71
2023/04/21 10:16:04;;;;;;;218.85;200.07;;;;;;;17.62;45.61;101940.94;5103298;28;20077;-72
2023/04/21 10:18:30;;;;;;;210.80;193.05;;;;;;;17.59;45.67;101935.28;5086834;28;20077;-73
2023/04/21 10:21:20;;;;;;;207.17;189.97;;;;;;;17.88;44.14;101932.53;5082382;28;20410;-74
2023/04/21 10:23:48;;;;;;;229.88;211.77;;;;;;;17.70;44.57;101944.94;5082706;28;20405;-74
2023/04/21 10:26:25;;;;;;;157.55;141.15;;;;;;;17.79;46.81;101931.56;5084499;28;20296;-73
2023/04/21 10:29:03;;;;;;;219.05;202.40;;;;;;;17.79;43.04;101926.16;5081670;28;20040;-72
2023/04/21 10:31:48;;;;;;;219.32;202.68;;;;;;;18.02;43.67;101922.63;5087055;28;20085;-72
2023/04/21 10:34:15;;;;;;;204.00;186.70;;;;;;;18.28;44.83;101926.59;5084673;28;20038;-71
2023/04/21 10:36:44;;;;;;;217.05;200.65;;;;;;;18.29;42.11;101922.00;5074011;28;20111;-73
2023/04/21 10:39:27;;;;;;;216.68;200.48;;;;;;;18.35;42.27;101920.78;5084175;28;20500;-72
2023/04/21 10:41:57;;;;;;;215.07;199.05;;;;;;;18.53;43.00;101917.28;5084691;28;20126;-71
2023/04/21 10:44:24;;;;;;;205.25;188.40;;;;;;;18.79;44.73;101912.28;5080695;28;20036;-74
2023/04/21 10:46:51;;;;;;;221.38;204.65;;;;;;;19.06;41.91;101908.84;5084354;28;20050;-72
2023/04/21 10:49:24;;;;;;;239.75;217.68;;;;;;;18.50;42.26;101904.31;5096147;28;20538;-70
2023/04/21 10:51:59;;;;;;;210.82;193.13;;;;;;;18.82;41.81;101897.31;5102068;28;20038;-72
2023/04/21 10:54:26;;;;;;;202.25;185.07;;;;;;;18.69;42.73;101904.31;5099328;28;20036;-72
2023/04/21 10:56:56;;;;;;;216.20;199.77;;;;;;;18.75;41.65;101897.69;5080362;28;20047;-71
2023/04/21 10:59:23;;;;;;;225.82;208.55;;;;;;;18.84;41.81;101891.63;5079760;28;20481;-72
2023/04/21 11:01:49;;;;;;;189.40;174.50;;;;;;;18.86;40.23;101892.91;5068079;28;20054;-70
2023/04/21 11:04:16;;;;;;;209.07;194.17;;;;;;;18.87;39.64;101893.72;5061782;28;20502;-69
2023/04/21 11:06:42;;;;;;;221.25;203.93;;;;;;;18.92;39.46;101894.44;5067997;28;20085;-73
2023/04/21 11:09:08;;;;;;;217.73;201.07;;;;;;;19.25;42.25;101884.34;5092814;28;20034;-73
2023/04/21 11:11:35;;;;;;;201.23;185.18;;;;;;;19.61;40.88;101881.75;5059864;28;20039;-73
2023/04/21 11:14:02;;;;;;;204.55;187.82;;;;;;;19.24;39.35;101869.16;5097629;28;20035;-72
2023/04/21 11:16:28;;;;;;;218.13;201.75;;;;;;;19.38;36.99;101874.59;5066861;28;20043;-70
2023/04/21 11:18:55;;;;;;;223.98;207.40;;;;;;;19.22;35.60;101865.94;5086227;28;20043;-72
2023/04/21 11:21:23;;;;;;;205.80;188.63;;;;;;;19.48;36.91;101870.88;5077485;28;20055;-71
2023/04/21 11:23:51;;;;;;;230.98;213.50;;;;;;;19.30;35.02;101858.97;5078291;28;20043;-71
2023/04/21 11:26:18;;;;;;;225.55;208.65;;;;;;;19.62;36.04;101855.41;5092881;28;20027;-73
2023/04/21 11:28:48;;;;;;;200.48;184.27;;;;;;;20.05;37.67;101863.16;5100678;28;20058;-72
2023/04/21 11:31:14;;;;;;;193.35;178.35;;;;;;;19.39;36.09;101849.03;5084339;28;20036;-69
2023/04/21 11:33:40;;;;;;;215.93;197.45;;;;;;;19.29;36.27;101844.59;5097346;28;20038;-71
2023/04/21 11:36:07;;;;;;;198.35;182.65;;;;;;;19.51;36.28;101848.50;5064998;28;21436;-73
2023/04/21 11:38:40;;;;;;;200.98;184.45;;;;;;;19.83;37.34;101840.25;5076352;28;20038;-72
2023/04/21 11:41:08;;;;;;;255.63;233.68;;;;;;;19.42;36.56;101839.47;5086350;28;20035;-73
2023/04/21 11:43:35;;;;;;;214.15;196.25;;;;;;;19.54;36.10;101837.06;5067365;28;20378;-72
2023/04/21 11:46:25;;;;;;;196.23;180.75;;;;;;;19.63;35.83;101840.69;5084317;28;20027;-71
2023/04/21 11:49:05;;;;;;;179.35;165.65;;;;;;;19.02;36.15;101831.81;5078478;28;20072;-73
2023/04/21 11:51:43;;;;;;;204.70;189.30;;;;;;;19.71;36.96;101825.59;5080293;28;20085;-70
2023/04/21 11:54:11;;;;;;;156.60;145.50;;;;;;;19.75;37.48;101821.97;5053756;28;20040;-69
2023/04/21 11:56:44;;;;;;;166.50;155.00;;;;;;;20.39;35.92;101821.88;5048804;28;20462;-71
2023/04/21 11:59:21;;;;;;;213.82;195.30;;;;;;;20.03;36.17;101813.72;5085087;28;20084;-72
2023/04/21 12:01:49;;;;;;;220.65;200.77;;;;;;;19.88;36.61;101818.41;5087100;28;20023;-70
2023/04/21 12:04:23;;;;;;;216.43;197.40;;;;;;;20.25;36.64;101821.09;5082245;28;20046;-70
2023/04/21 12:07:00;;;;;;;235.27;213.27;;;;;;;20.00;36.38;101809.72;5100153;28;20058;-71